sensor_id;sensor_type;location;lat;lon;timestamp;P1;durP1;ratioP1;P2;durP2;ratioP2
3280;SDS011;1652;51.31805600;6.20194400;2024-03-08T00:00:10;19.00;;;12.50;;
3280;SDS011;1652;51.31805600;6.20194400;2024-03-08T00:02:46;21.70;;;13.97;;
3280;SDS011;1652;51.31805600;6.20194400;2024-03-08T00:05:17;18.50;;;13.67;;
3280;SDS011;1652;51.31805600;6.20194400;2024-03-08T00:08:28;21.07;;;14.00;;
3280;SDS011;1652;51.31805600;6.20194400;2024-03-08T00:11:15;19.90;;;11.97;;
3280;SDS011;1652;51.31805600;6.20194400;2024-03-08T00:13:42;17.90;;;13.70;;
3280;SDS011;1652;51.31805600;6.20194400;2024-03-08T00:16:11;22.40;;;13.07;;
3280;SDS011;1652;51.31805600;6.20194400;2024-03-08T00:18:38;23.20;;;14.97;;
3280;SDS011;1652;51.31805600;6.20194400;2024-03-08T00:21:05;18.70;;;14.23;;
3280;SDS011;1652;51.31805600;6.20194400;2024-03-08T00:23:32;22.73;;;14.03;;
3280;SDS011;1652;51.31805600;6.20194400;2024-03-08T00:25:59;24.90;;;15.87;;
3280;SDS011;1652;51.31805600;6.20194400;2024-03-08T00:28:27;21.83;;;13.90;;
3280;SDS011;1652;51.31805600;6.20194400;2024-03-08T00:30:53;23.70;;;14.63;;
3280;SDS011;1652;51.31805600;6.20194400;2024-03-08T00:33:20;27.73;;;14.07;;
3280;SDS011;1652;51.31805600;6.20194400;2024-03-08T00:35:47;21.80;;;14.03;;
3280;SDS011;1652;51.31805600;6.20194400;2024-03-08T00:38:14;22.33;;;14.53;;
3280;SDS011;1652;51.31805600;6.20194400;2024-03-08T00:40:41;23.63;;;13.90;;
3280;SDS011;1652;51.31805600;6.20194400;2024-03-08T00:43:08;22.97;;;14.97;;
3280;SDS011;1652;51.31805600;6.20194400;2024-03-08T00:45:35;20.93;;;12.83;;
3280;SDS011;1652;51.31805600;6.20194400;2024-03-08T00:48:03;27.40;;;14.57;;
3280;SDS011;1652;51.31805600;6.20194400;2024-03-08T00:50:32;23.90;;;14.90;;
3280;SDS011;1652;51.31805600;6.20194400;2024-03-08T00:53:00;21.30;;;14.27;;
3280;SDS011;1652;51.31805600;6.20194400;2024-03-08T00:55:27;19.90;;;13.70;;
3280;SDS011;1652;51.31805600;6.20194400;2024-03-08T00:57:55;21.30;;;14.50;;
3280;SDS011;1652;51.31805600;6.20194400;2024-03-08T01:00:22;29.63;;;14.80;;
3280;SDS011;1652;51.31805600;6.20194400;2024-03-08T01:02:51;18.17;;;13.47;;
3280;SDS011;1652;51.31805600;6.20194400;2024-03-08T01:05:18;24.50;;;13.93;;
3280;SDS011;1652;51.31805600;6.20194400;2024-03-08T01:07:45;23.30;;;15.80;;
3280;SDS011;1652;51.31805600;6.20194400;2024-03-08T01:10:12;25.10;;;12.73;;
3280;SDS011;1652;51.31805600;6.20194400;2024-03-08T01:12:39;25.90;;;14.67;;
3280;SDS011;1652;51.31805600;6.20194400;2024-03-08T01:15:06;22.97;;;13.90;;
3280;SDS011;1652;51.31805600;6.20194400;2024-03-08T01:17:34;21.20;;;14.10;;
3280;SDS011;1652;51.31805600;6.20194400;2024-03-08T01:20:01;21.93;;;14.40;;
3280;SDS011;1652;51.31805600;6.20194400;2024-03-08T01:22:29;21.23;;;13.80;;
3280;SDS011;1652;51.31805600;6.20194400;2024-03-08T01:24:56;17.50;;;13.37;;
3280;SDS011;1652;51.31805600;6.20194400;2024-03-08T01:27:23;26.37;;;14.03;;
3280;SDS011;1652;51.31805600;6.20194400;2024-03-08T01:29:51;24.80;;;15.70;;
3280;SDS011;1652;51.31805600;6.20194400;2024-03-08T01:32:18;23.77;;;14.70;;
3280;SDS011;1652;51.31805600;6.20194400;2024-03-08T01:34:45;23.83;;;13.27;;
3280;SDS011;1652;51.31805600;6.20194400;2024-03-08T01:37:12;20.70;;;14.30;;
3280;SDS011;1652;51.31805600;6.20194400;2024-03-08T01:39:40;22.60;;;14.67;;
3280;SDS011;1652;51.31805600;6.20194400;2024-03-08T01:42:07;21.20;;;14.10;;
3280;SDS011;1652;51.31805600;6.20194400;2024-03-08T01:44:38;24.50;;;13.80;;
3280;SDS011;1652;51.31805600;6.20194400;2024-03-08T01:47:05;21.57;;;13.60;;
3280;SDS011;1652;51.31805600;6.20194400;2024-03-08T01:49:33;28.10;;;15.83;;
3280;SDS011;1652;51.31805600;6.20194400;2024-03-08T01:52:00;24.40;;;14.43;;
3280;SDS011;1652;51.31805600;6.20194400;2024-03-08T01:54:27;23.67;;;14.93;;
3280;SDS011;1652;51.31805600;6.20194400;2024-03-08T01:56:54;21.23;;;14.67;;
3280;SDS011;1652;51.31805600;6.20194400;2024-03-08T01:59:21;23.67;;;13.93;;
3280;SDS011;1652;51.31805600;6.20194400;2024-03-08T02:01:48;22.20;;;14.47;;
3280;SDS011;1652;51.31805600;6.20194400;2024-03-08T02:04:15;23.07;;;14.20;;
3280;SDS011;1652;51.31805600;6.20194400;2024-03-08T02:06:42;23.43;;;15.10;;
3280;SDS011;1652;51.31805600;6.20194400;2024-03-08T02:09:11;23.00;;;14.80;;
3280;SDS011;1652;51.31805600;6.20194400;2024-03-08T02:11:38;23.63;;;14.33;;
3280;SDS011;1652;51.31805600;6.20194400;2024-03-08T02:14:07;33.43;;;16.70;;
3280;SDS011;1652;51.31805600;6.20194400;2024-03-08T02:16:34;23.23;;;14.20;;
3280;SDS011;1652;51.31805600;6.20194400;2024-03-08T02:19:01;25.77;;;15.67;;
3280;SDS011;1652;51.31805600;6.20194400;2024-03-08T02:21:28;26.70;;;15.27;;
3280;SDS011;1652;51.31805600;6.20194400;2024-03-08T02:23:57;22.57;;;14.77;;
3280;SDS011;1652;51.31805600;6.20194400;2024-03-08T02:26:25;19.20;;;14.33;;
3280;SDS011;1652;51.31805600;6.20194400;2024-03-08T02:28:52;24.10;;;15.43;;
3280;SDS011;1652;51.31805600;6.20194400;2024-03-08T02:31:19;22.77;;;15.10;;
3280;SDS011;1652;51.31805600;6.20194400;2024-03-08T02:33:48;25.90;;;15.63;;
3280;SDS011;1652;51.31805600;6.20194400;2024-03-08T02:36:15;23.33;;;15.00;;
3280;SDS011;1652;51.31805600;6.20194400;2024-03-08T02:38:43;21.00;;;14.50;;
3280;SDS011;1652;51.31805600;6.20194400;2024-03-08T02:41:09;28.17;;;15.87;;
3280;SDS011;1652;51.31805600;6.20194400;2024-03-08T02:43:37;22.30;;;15.17;;
3280;SDS011;1652;51.31805600;6.20194400;2024-03-08T02:46:04;25.73;;;15.73;;
3280;SDS011;1652;51.31805600;6.20194400;2024-03-08T02:48:34;28.77;;;15.13;;
3280;SDS011;1652;51.31805600;6.20194400;2024-03-08T02:51:01;22.33;;;15.27;;
3280;SDS011;1652;51.31805600;6.20194400;2024-03-08T02:53:29;21.20;;;14.90;;
3280;SDS011;1652;51.31805600;6.20194400;2024-03-08T02:55:55;23.20;;;15.20;;
3280;SDS011;1652;51.31805600;6.20194400;2024-03-08T02:58:22;23.27;;;15.20;;
3280;SDS011;1652;51.31805600;6.20194400;2024-03-08T03:00:49;26.13;;;16.00;;
3280;SDS011;1652;51.31805600;6.20194400;2024-03-08T03:03:16;21.53;;;14.67;;
3280;SDS011;1652;51.31805600;6.20194400;2024-03-08T03:05:43;22.10;;;15.00;;
3280;SDS011;1652;51.31805600;6.20194400;2024-03-08T03:08:14;28.20;;;16.67;;
3280;SDS011;1652;51.31805600;6.20194400;2024-03-08T03:10:44;28.60;;;15.77;;
3280;SDS011;1652;51.31805600;6.20194400;2024-03-08T03:13:11;22.67;;;16.40;;
3280;SDS011;1652;51.31805600;6.20194400;2024-03-08T03:15:38;24.50;;;15.07;;
3280;SDS011;1652;51.31805600;6.20194400;2024-03-08T03:18:08;25.43;;;15.60;;
3280;SDS011;1652;51.31805600;6.20194400;2024-03-08T03:20:35;22.93;;;14.80;;
3280;SDS011;1652;51.31805600;6.20194400;2024-03-08T03:23:09;24.03;;;14.53;;
3280;SDS011;1652;51.31805600;6.20194400;2024-03-08T03:25:41;26.33;;;16.07;;
3280;SDS011;1652;51.31805600;6.20194400;2024-03-08T03:28:08;22.60;;;14.90;;
3280;SDS011;1652;51.31805600;6.20194400;2024-03-08T03:30:37;24.03;;;14.90;;
3280;SDS011;1652;51.31805600;6.20194400;2024-03-08T03:33:05;26.03;;;15.70;;
3280;SDS011;1652;51.31805600;6.20194400;2024-03-08T03:35:36;27.03;;;15.77;;
3280;SDS011;1652;51.31805600;6.20194400;2024-03-08T03:38:04;26.77;;;16.43;;
3280;SDS011;1652;51.31805600;6.20194400;2024-03-08T03:40:37;27.07;;;16.57;;
3280;SDS011;1652;51.31805600;6.20194400;2024-03-08T03:43:05;23.87;;;15.73;;
3280;SDS011;1652;51.31805600;6.20194400;2024-03-08T03:45:32;25.83;;;15.23;;
3280;SDS011;1652;51.31805600;6.20194400;2024-03-08T03:48:04;28.47;;;16.60;;
3280;SDS011;1652;51.31805600;6.20194400;2024-03-08T03:50:35;24.37;;;15.60;;
3280;SDS011;1652;51.31805600;6.20194400;2024-03-08T03:53:03;28.07;;;17.10;;
3280;SDS011;1652;51.31805600;6.20194400;2024-03-08T03:55:31;27.87;;;15.93;;
3280;SDS011;1652;51.31805600;6.20194400;2024-03-08T03:58:01;31.10;;;17.23;;
3280;SDS011;1652;51.31805600;6.20194400;2024-03-08T04:00:28;25.73;;;15.60;;
3280;SDS011;1652;51.31805600;6.20194400;2024-03-08T04:02:54;25.70;;;16.13;;
3280;SDS011;1652;51.31805600;6.20194400;2024-03-08T04:05:25;23.67;;;16.03;;
3280;SDS011;1652;51.31805600;6.20194400;2024-03-08T04:07:53;26.83;;;16.40;;
3280;SDS011;1652;51.31805600;6.20194400;2024-03-08T04:10:20;29.60;;;16.67;;
3280;SDS011;1652;51.31805600;6.20194400;2024-03-08T04:12:47;28.10;;;16.60;;
3280;SDS011;1652;51.31805600;6.20194400;2024-03-08T04:15:14;27.93;;;16.47;;
3280;SDS011;1652;51.31805600;6.20194400;2024-03-08T04:17:42;24.43;;;15.80;;
3280;SDS011;1652;51.31805600;6.20194400;2024-03-08T04:20:09;28.47;;;16.97;;
3280;SDS011;1652;51.31805600;6.20194400;2024-03-08T04:22:37;31.17;;;17.17;;
3280;SDS011;1652;51.31805600;6.20194400;2024-03-08T04:25:06;32.90;;;17.50;;
3280;SDS011;1652;51.31805600;6.20194400;2024-03-08T04:27:33;32.50;;;18.50;;
3280;SDS011;1652;51.31805600;6.20194400;2024-03-08T04:30:01;25.80;;;15.43;;
3280;SDS011;1652;51.31805600;6.20194400;2024-03-08T04:32:29;27.50;;;16.47;;
3280;SDS011;1652;51.31805600;6.20194400;2024-03-08T04:34:59;28.13;;;16.97;;
3280;SDS011;1652;51.31805600;6.20194400;2024-03-08T04:37:31;26.77;;;16.80;;
3280;SDS011;1652;51.31805600;6.20194400;2024-03-08T04:39:58;26.07;;;16.23;;
3280;SDS011;1652;51.31805600;6.20194400;2024-03-08T04:42:28;31.80;;;18.40;;
3280;SDS011;1652;51.31805600;6.20194400;2024-03-08T04:44:56;27.33;;;16.20;;
3280;SDS011;1652;51.31805600;6.20194400;2024-03-08T04:47:24;24.90;;;16.60;;
3280;SDS011;1652;51.31805600;6.20194400;2024-03-08T04:49:51;33.07;;;17.63;;
3280;SDS011;1652;51.31805600;6.20194400;2024-03-08T04:52:18;30.30;;;18.80;;
3280;SDS011;1652;51.31805600;6.20194400;2024-03-08T04:54:45;32.60;;;18.27;;
3280;SDS011;1652;51.31805600;6.20194400;2024-03-08T04:57:12;32.50;;;17.80;;
3280;SDS011;1652;51.31805600;6.20194400;2024-03-08T04:59:39;34.37;;;19.27;;
3280;SDS011;1652;51.31805600;6.20194400;2024-03-08T05:02:06;27.57;;;17.37;;
3280;SDS011;1652;51.31805600;6.20194400;2024-03-08T05:04:33;32.60;;;19.00;;
3280;SDS011;1652;51.31805600;6.20194400;2024-03-08T05:07:01;33.73;;;18.77;;
3280;SDS011;1652;51.31805600;6.20194400;2024-03-08T05:09:28;31.20;;;19.10;;
3280;SDS011;1652;51.31805600;6.20194400;2024-03-08T05:11:58;31.03;;;18.17;;
3280;SDS011;1652;51.31805600;6.20194400;2024-03-08T05:14:25;39.43;;;17.23;;
3280;SDS011;1652;51.31805600;6.20194400;2024-03-08T05:16:52;30.70;;;18.67;;
3280;SDS011;1652;51.31805600;6.20194400;2024-03-08T05:19:19;34.23;;;18.80;;
3280;SDS011;1652;51.31805600;6.20194400;2024-03-08T05:21:48;32.50;;;18.47;;
3280;SDS011;1652;51.31805600;6.20194400;2024-03-08T05:24:16;32.70;;;18.03;;
3280;SDS011;1652;51.31805600;6.20194400;2024-03-08T05:26:45;33.53;;;19.87;;
3280;SDS011;1652;51.31805600;6.20194400;2024-03-08T05:29:13;31.10;;;18.87;;
3280;SDS011;1652;51.31805600;6.20194400;2024-03-08T05:31:48;31.17;;;18.70;;
3280;SDS011;1652;51.31805600;6.20194400;2024-03-08T05:34:16;31.57;;;18.00;;
3280;SDS011;1652;51.31805600;6.20194400;2024-03-08T05:36:43;30.10;;;18.10;;
3280;SDS011;1652;51.31805600;6.20194400;2024-03-08T05:39:14;31.73;;;19.13;;
3280;SDS011;1652;51.31805600;6.20194400;2024-03-08T05:41:42;34.80;;;19.33;;
3280;SDS011;1652;51.31805600;6.20194400;2024-03-08T05:44:10;33.47;;;18.47;;
3280;SDS011;1652;51.31805600;6.20194400;2024-03-08T05:46:37;30.40;;;18.20;;
3280;SDS011;1652;51.31805600;6.20194400;2024-03-08T05:49:05;38.23;;;19.80;;
3280;SDS011;1652;51.31805600;6.20194400;2024-03-08T05:51:37;39.90;;;20.17;;
3280;SDS011;1652;51.31805600;6.20194400;2024-03-08T05:54:12;31.43;;;18.80;;
3280;SDS011;1652;51.31805600;6.20194400;2024-03-08T05:56:43;33.30;;;19.80;;
3280;SDS011;1652;51.31805600;6.20194400;2024-03-08T05:59:11;37.30;;;19.33;;
3280;SDS011;1652;51.31805600;6.20194400;2024-03-08T06:01:39;35.33;;;20.50;;
3280;SDS011;1652;51.31805600;6.20194400;2024-03-08T06:04:08;32.43;;;17.80;;
3280;SDS011;1652;51.31805600;6.20194400;2024-03-08T06:06:38;35.37;;;18.90;;
3280;SDS011;1652;51.31805600;6.20194400;2024-03-08T06:09:07;29.63;;;17.40;;
3280;SDS011;1652;51.31805600;6.20194400;2024-03-08T06:11:51;36.27;;;19.90;;
3280;SDS011;1652;51.31805600;6.20194400;2024-03-08T06:14:20;33.37;;;18.73;;
3280;SDS011;1652;51.31805600;6.20194400;2024-03-08T06:16:48;33.40;;;18.33;;
3280;SDS011;1652;51.31805600;6.20194400;2024-03-08T06:19:16;39.17;;;18.10;;
3280;SDS011;1652;51.31805600;6.20194400;2024-03-08T06:21:43;35.43;;;17.83;;
3280;SDS011;1652;51.31805600;6.20194400;2024-03-08T06:24:10;33.70;;;18.93;;
3280;SDS011;1652;51.31805600;6.20194400;2024-03-08T06:26:37;44.07;;;19.13;;
3280;SDS011;1652;51.31805600;6.20194400;2024-03-08T06:29:05;36.93;;;18.03;;
3280;SDS011;1652;51.31805600;6.20194400;2024-03-08T06:31:35;33.40;;;19.77;;
3280;SDS011;1652;51.31805600;6.20194400;2024-03-08T06:34:06;35.87;;;19.63;;
3280;SDS011;1652;51.31805600;6.20194400;2024-03-08T06:36:35;33.50;;;17.70;;
3280;SDS011;1652;51.31805600;6.20194400;2024-03-08T06:39:05;37.87;;;19.10;;
3280;SDS011;1652;51.31805600;6.20194400;2024-03-08T06:41:36;36.30;;;20.30;;
3280;SDS011;1652;51.31805600;6.20194400;2024-03-08T06:44:04;34.27;;;20.53;;
3280;SDS011;1652;51.31805600;6.20194400;2024-03-08T06:46:31;30.57;;;18.00;;
3280;SDS011;1652;51.31805600;6.20194400;2024-03-08T06:48:58;33.03;;;19.27;;
3280;SDS011;1652;51.31805600;6.20194400;2024-03-08T06:51:25;33.47;;;18.53;;
3280;SDS011;1652;51.31805600;6.20194400;2024-03-08T06:53:52;35.10;;;20.80;;
3280;SDS011;1652;51.31805600;6.20194400;2024-03-08T06:56:19;28.73;;;18.40;;
3280;SDS011;1652;51.31805600;6.20194400;2024-03-08T06:58:46;33.27;;;19.67;;
3280;SDS011;1652;51.31805600;6.20194400;2024-03-08T07:01:13;31.20;;;18.60;;
3280;SDS011;1652;51.31805600;6.20194400;2024-03-08T07:03:43;39.67;;;18.27;;
3280;SDS011;1652;51.31805600;6.20194400;2024-03-08T07:06:11;27.70;;;18.47;;
3280;SDS011;1652;51.31805600;6.20194400;2024-03-08T07:08:38;32.77;;;19.00;;
3280;SDS011;1652;51.31805600;6.20194400;2024-03-08T07:11:06;32.40;;;18.00;;
3280;SDS011;1652;51.31805600;6.20194400;2024-03-08T07:13:33;26.57;;;16.90;;
3280;SDS011;1652;51.31805600;6.20194400;2024-03-08T07:15:59;27.63;;;17.70;;
3280;SDS011;1652;51.31805600;6.20194400;2024-03-08T07:18:27;30.63;;;19.57;;
3280;SDS011;1652;51.31805600;6.20194400;2024-03-08T07:20:57;28.43;;;17.70;;
3280;SDS011;1652;51.31805600;6.20194400;2024-03-08T07:23:24;29.40;;;19.70;;
3280;SDS011;1652;51.31805600;6.20194400;2024-03-08T07:26:10;31.03;;;17.63;;
3280;SDS011;1652;51.31805600;6.20194400;2024-03-08T07:28:37;28.17;;;17.63;;
3280;SDS011;1652;51.31805600;6.20194400;2024-03-08T07:31:04;28.97;;;17.60;;
3280;SDS011;1652;51.31805600;6.20194400;2024-03-08T07:33:43;27.57;;;17.00;;
3280;SDS011;1652;51.31805600;6.20194400;2024-03-08T07:36:10;32.20;;;17.53;;
3280;SDS011;1652;51.31805600;6.20194400;2024-03-08T07:38:38;29.30;;;17.23;;
3280;SDS011;1652;51.31805600;6.20194400;2024-03-08T07:41:05;30.00;;;18.80;;
3280;SDS011;1652;51.31805600;6.20194400;2024-03-08T07:43:32;30.90;;;17.97;;
3280;SDS011;1652;51.31805600;6.20194400;2024-03-08T07:45:59;25.30;;;17.50;;
3280;SDS011;1652;51.31805600;6.20194400;2024-03-08T07:48:26;34.73;;;18.00;;
3280;SDS011;1652;51.31805600;6.20194400;2024-03-08T07:50:54;30.90;;;18.17;;
3280;SDS011;1652;51.31805600;6.20194400;2024-03-08T07:53:22;33.33;;;17.73;;
3280;SDS011;1652;51.31805600;6.20194400;2024-03-08T07:55:51;29.70;;;17.53;;
3280;SDS011;1652;51.31805600;6.20194400;2024-03-08T07:58:18;33.90;;;18.30;;
3280;SDS011;1652;51.31805600;6.20194400;2024-03-08T08:00:45;30.43;;;16.50;;
3280;SDS011;1652;51.31805600;6.20194400;2024-03-08T08:03:12;26.97;;;17.10;;
3280;SDS011;1652;51.31805600;6.20194400;2024-03-08T08:05:40;28.50;;;15.50;;
3280;SDS011;1652;51.31805600;6.20194400;2024-03-08T08:08:10;27.20;;;16.50;;
3280;SDS011;1652;51.31805600;6.20194400;2024-03-08T08:10:37;31.37;;;17.40;;
3280;SDS011;1652;51.31805600;6.20194400;2024-03-08T08:13:05;32.73;;;18.07;;
3280;SDS011;1652;51.31805600;6.20194400;2024-03-08T08:15:32;28.73;;;17.20;;
3280;SDS011;1652;51.31805600;6.20194400;2024-03-08T08:18:01;33.53;;;18.10;;
3280;SDS011;1652;51.31805600;6.20194400;2024-03-08T08:20:29;33.67;;;17.20;;
3280;SDS011;1652;51.31805600;6.20194400;2024-03-08T08:22:56;25.80;;;15.53;;
3280;SDS011;1652;51.31805600;6.20194400;2024-03-08T08:25:23;33.97;;;19.13;;
3280;SDS011;1652;51.31805600;6.20194400;2024-03-08T08:27:51;28.52;;;19.52;;
3280;SDS011;1652;51.31805600;6.20194400;2024-03-08T08:30:20;25.83;;;17.10;;
3280;SDS011;1652;51.31805600;6.20194400;2024-03-08T08:32:47;25.47;;;16.43;;
3280;SDS011;1652;51.31805600;6.20194400;2024-03-08T08:35:15;25.77;;;16.47;;
3280;SDS011;1652;51.31805600;6.20194400;2024-03-08T08:37:45;26.90;;;16.60;;
3280;SDS011;1652;51.31805600;6.20194400;2024-03-08T08:40:12;23.30;;;15.50;;
3280;SDS011;1652;51.31805600;6.20194400;2024-03-08T08:42:44;30.27;;;16.60;;
3280;SDS011;1652;51.31805600;6.20194400;2024-03-08T08:45:15;28.40;;;17.33;;
3280;SDS011;1652;51.31805600;6.20194400;2024-03-08T08:47:50;28.40;;;15.80;;
3280;SDS011;1652;51.31805600;6.20194400;2024-03-08T08:50:17;24.50;;;16.03;;
3280;SDS011;1652;51.31805600;6.20194400;2024-03-08T08:52:51;27.10;;;16.43;;
3280;SDS011;1652;51.31805600;6.20194400;2024-03-08T08:55:18;25.03;;;14.93;;
3280;SDS011;1652;51.31805600;6.20194400;2024-03-08T08:57:48;24.23;;;16.13;;
3280;SDS011;1652;51.31805600;6.20194400;2024-03-08T09:00:15;25.00;;;15.27;;
3280;SDS011;1652;51.31805600;6.20194400;2024-03-08T09:02:43;25.60;;;16.60;;
3280;SDS011;1652;51.31805600;6.20194400;2024-03-08T09:05:10;23.97;;;15.70;;
3280;SDS011;1652;51.31805600;6.20194400;2024-03-08T09:07:43;26.33;;;14.80;;
3280;SDS011;1652;51.31805600;6.20194400;2024-03-08T09:10:11;21.27;;;14.50;;
3280;SDS011;1652;51.31805600;6.20194400;2024-03-08T09:12:41;20.97;;;13.40;;
3280;SDS011;1652;51.31805600;6.20194400;2024-03-08T09:15:09;22.17;;;14.80;;
3280;SDS011;1652;51.31805600;6.20194400;2024-03-08T09:17:39;22.63;;;14.43;;
3280;SDS011;1652;51.31805600;6.20194400;2024-03-08T09:20:07;20.50;;;13.43;;
3280;SDS011;1652;51.31805600;6.20194400;2024-03-08T09:22:39;19.90;;;12.40;;
3280;SDS011;1652;51.31805600;6.20194400;2024-03-08T09:25:07;19.67;;;14.17;;
3280;SDS011;1652;51.31805600;6.20194400;2024-03-08T09:27:35;19.57;;;13.10;;
3280;SDS011;1652;51.31805600;6.20194400;2024-03-08T09:30:05;21.93;;;13.50;;
3280;SDS011;1652;51.31805600;6.20194400;2024-03-08T09:32:33;18.23;;;13.37;;
3280;SDS011;1652;51.31805600;6.20194400;2024-03-08T09:35:01;19.27;;;12.83;;
3280;SDS011;1652;51.31805600;6.20194400;2024-03-08T09:37:28;14.07;;;10.40;;
3280;SDS011;1652;51.31805600;6.20194400;2024-03-08T09:39:55;20.50;;;11.87;;
3280;SDS011;1652;51.31805600;6.20194400;2024-03-08T09:42:22;17.53;;;11.97;;
3280;SDS011;1652;51.31805600;6.20194400;2024-03-08T09:44:49;18.17;;;12.17;;
3280;SDS011;1652;51.31805600;6.20194400;2024-03-08T09:47:16;24.87;;;13.97;;
3280;SDS011;1652;51.31805600;6.20194400;2024-03-08T09:49:44;17.50;;;12.47;;
3280;SDS011;1652;51.31805600;6.20194400;2024-03-08T09:52:12;18.10;;;12.70;;
3280;SDS011;1652;51.31805600;6.20194400;2024-03-08T09:54:40;17.20;;;11.60;;
3280;SDS011;1652;51.31805600;6.20194400;2024-03-08T09:57:10;18.13;;;12.10;;
3280;SDS011;1652;51.31805600;6.20194400;2024-03-08T09:59:37;16.80;;;11.63;;
3280;SDS011;1652;51.31805600;6.20194400;2024-03-08T10:02:04;13.10;;;10.03;;
3280;SDS011;1652;51.31805600;6.20194400;2024-03-08T10:04:32;17.87;;;11.97;;
3280;SDS011;1652;51.31805600;6.20194400;2024-03-08T10:07:00;13.30;;;8.73;;
3280;SDS011;1652;51.31805600;6.20194400;2024-03-08T10:09:28;15.43;;;10.90;;
3280;SDS011;1652;51.31805600;6.20194400;2024-03-08T10:11:58;16.93;;;11.90;;
3280;SDS011;1652;51.31805600;6.20194400;2024-03-08T10:14:25;15.90;;;10.90;;
3280;SDS011;1652;51.31805600;6.20194400;2024-03-08T10:16:55;10.73;;;7.97;;
3280;SDS011;1652;51.31805600;6.20194400;2024-03-08T10:19:27;11.23;;;8.03;;
3280;SDS011;1652;51.31805600;6.20194400;2024-03-08T10:21:56;13.47;;;9.50;;
3280;SDS011;1652;51.31805600;6.20194400;2024-03-08T10:24:25;12.60;;;9.67;;
3280;SDS011;1652;51.31805600;6.20194400;2024-03-08T10:26:53;11.70;;;9.20;;
3280;SDS011;1652;51.31805600;6.20194400;2024-03-08T10:29:20;15.13;;;10.97;;
3280;SDS011;1652;51.31805600;6.20194400;2024-03-08T10:31:47;13.70;;;10.97;;
3280;SDS011;1652;51.31805600;6.20194400;2024-03-08T10:34:16;15.20;;;10.50;;
3280;SDS011;1652;51.31805600;6.20194400;2024-03-08T10:36:43;12.73;;;9.97;;
3280;SDS011;1652;51.31805600;6.20194400;2024-03-08T10:39:17;14.93;;;9.80;;
3280;SDS011;1652;51.31805600;6.20194400;2024-03-08T10:41:58;13.13;;;10.20;;
3280;SDS011;1652;51.31805600;6.20194400;2024-03-08T10:52:31;11.30;;;8.33;;
3280;SDS011;1652;51.31805600;6.20194400;2024-03-08T10:54:59;13.13;;;9.17;;
3280;SDS011;1652;51.31805600;6.20194400;2024-03-08T10:57:30;12.23;;;8.73;;
3280;SDS011;1652;51.31805600;6.20194400;2024-03-08T10:59:57;13.20;;;9.80;;
3280;SDS011;1652;51.31805600;6.20194400;2024-03-08T11:02:25;12.33;;;9.77;;
3280;SDS011;1652;51.31805600;6.20194400;2024-03-08T11:04:53;16.17;;;10.97;;
3280;SDS011;1652;51.31805600;6.20194400;2024-03-08T11:07:23;17.10;;;10.13;;
3280;SDS011;1652;51.31805600;6.20194400;2024-03-08T11:09:54;13.40;;;9.90;;
3280;SDS011;1652;51.31805600;6.20194400;2024-03-08T11:12:26;12.60;;;9.83;;
3280;SDS011;1652;51.31805600;6.20194400;2024-03-08T11:14:59;11.13;;;9.23;;
3280;SDS011;1652;51.31805600;6.20194400;2024-03-08T11:19:58;18.20;;;9.40;;
3280;SDS011;1652;51.31805600;6.20194400;2024-03-08T11:22:32;12.40;;;9.40;;
3280;SDS011;1652;51.31805600;6.20194400;2024-03-08T11:25:03;10.20;;;8.13;;
3280;SDS011;1652;51.31805600;6.20194400;2024-03-08T11:27:37;9.20;;;7.47;;
3280;SDS011;1652;51.31805600;6.20194400;2024-03-08T11:30:05;10.23;;;8.73;;
3280;SDS011;1652;51.31805600;6.20194400;2024-03-08T11:32:46;12.97;;;9.20;;
3280;SDS011;1652;51.31805600;6.20194400;2024-03-08T11:35:20;9.87;;;8.77;;
3280;SDS011;1652;51.31805600;6.20194400;2024-03-08T11:37:50;11.83;;;7.70;;
3280;SDS011;1652;51.31805600;6.20194400;2024-03-08T11:40:17;9.80;;;8.50;;
3280;SDS011;1652;51.31805600;6.20194400;2024-03-08T11:42:47;14.13;;;8.90;;
3280;SDS011;1652;51.31805600;6.20194400;2024-03-08T11:45:15;15.20;;;9.17;;
3280;SDS011;1652;51.31805600;6.20194400;2024-03-08T11:47:44;10.67;;;8.93;;
3280;SDS011;1652;51.31805600;6.20194400;2024-03-08T11:50:16;11.33;;;8.30;;
3280;SDS011;1652;51.31805600;6.20194400;2024-03-08T11:52:45;9.17;;;8.17;;
3280;SDS011;1652;51.31805600;6.20194400;2024-03-08T11:55:13;9.57;;;6.97;;
3280;SDS011;1652;51.31805600;6.20194400;2024-03-08T11:57:41;14.73;;;9.40;;
3280;SDS011;1652;51.31805600;6.20194400;2024-03-08T12:00:15;10.63;;;8.23;;
3280;SDS011;1652;51.31805600;6.20194400;2024-03-08T12:03:02;11.50;;;7.70;;
3280;SDS011;1652;51.31805600;6.20194400;2024-03-08T12:05:30;9.13;;;7.70;;
3280;SDS011;1652;51.31805600;6.20194400;2024-03-08T12:07:57;10.00;;;7.90;;
3280;SDS011;1652;51.31805600;6.20194400;2024-03-08T12:10:25;11.50;;;8.37;;
3280;SDS011;1652;51.31805600;6.20194400;2024-03-08T12:12:54;14.80;;;9.77;;
3280;SDS011;1652;51.31805600;6.20194400;2024-03-08T12:15:23;11.70;;;9.53;;
3280;SDS011;1652;51.31805600;6.20194400;2024-03-08T12:17:51;13.50;;;8.87;;
3280;SDS011;1652;51.31805600;6.20194400;2024-03-08T12:20:21;11.93;;;8.80;;
3280;SDS011;1652;51.31805600;6.20194400;2024-03-08T12:22:50;8.37;;;7.50;;
3280;SDS011;1652;51.31805600;6.20194400;2024-03-08T12:25:19;11.27;;;9.57;;
3280;SDS011;1652;51.31805600;6.20194400;2024-03-08T12:27:47;12.10;;;8.50;;
3280;SDS011;1652;51.31805600;6.20194400;2024-03-08T12:30:17;9.93;;;8.70;;
3280;SDS011;1652;51.31805600;6.20194400;2024-03-08T12:32:50;9.27;;;7.47;;
3280;SDS011;1652;51.31805600;6.20194400;2024-03-08T12:35:26;10.20;;;8.90;;
3280;SDS011;1652;51.31805600;6.20194400;2024-03-08T12:37:57;14.10;;;9.10;;
3280;SDS011;1652;51.31805600;6.20194400;2024-03-08T12:40:26;17.27;;;8.87;;
3280;SDS011;1652;51.31805600;6.20194400;2024-03-08T12:42:55;9.33;;;8.00;;
3280;SDS011;1652;51.31805600;6.20194400;2024-03-08T12:45:26;12.53;;;10.13;;
3280;SDS011;1652;51.31805600;6.20194400;2024-03-08T12:47:53;12.03;;;8.90;;
3280;SDS011;1652;51.31805600;6.20194400;2024-03-08T12:50:21;21.60;;;8.60;;
3280;SDS011;1652;51.31805600;6.20194400;2024-03-08T12:52:53;14.67;;;10.10;;
3280;SDS011;1652;51.31805600;6.20194400;2024-03-08T12:55:21;11.57;;;8.57;;
3280;SDS011;1652;51.31805600;6.20194400;2024-03-08T12:57:47;9.53;;;8.50;;
3280;SDS011;1652;51.31805600;6.20194400;2024-03-08T13:00:15;12.17;;;9.27;;
3280;SDS011;1652;51.31805600;6.20194400;2024-03-08T13:02:50;12.13;;;10.03;;
3280;SDS011;1652;51.31805600;6.20194400;2024-03-08T13:05:18;10.43;;;9.33;;
3280;SDS011;1652;51.31805600;6.20194400;2024-03-08T13:07:46;14.13;;;8.97;;
3280;SDS011;1652;51.31805600;6.20194400;2024-03-08T13:10:13;13.53;;;9.03;;